KOLV/OLV METAR and TAF weather

Enter ICAO airport designator
Station Type Date Time Source
KOLV METAR 2019/12/06 13:50 UTC NOAA

KOLV 061350Z 15003KT 6SM -RA BR SCT013 OVC030 10/10 A3008


Station Type Date Time Source
KOLV Decoded METAR 2019/12/06 13:50 UTC NOAA

Olive Branch, Olive Branch Airport, MS, United States (KOLV) 34-58-44N 089-47-13W
Dec 06, 2019 - 08:50 AM EST / 2019.12.06 1350 UTC
Wind: from the SSE (150 degrees) at 3 MPH (3 KT):0
Visibility: 6 mile(s):0
Sky conditions: overcast
Weather: light rain; mist
Temperature: 50 F (10 C)
Dew Point: 50 F (10 C)
Relative Humidity: 100%
Pressure (altimeter): 30.08 in. Hg (1018 hPa)
ob: KOLV 061350Z 15003KT 6SM -RA BR SCT013 OVC030 10/10 A3008
cycle: 14

Station Type Date Time Source
KOLV TAF UTC NOAA

Error!

Example: see airport list